Seisyu Maru — JD3882 — position and weather

sailwx.info

Track history (hours):
 
Tides and Currents Weather Stations Pressure Air Temp Water Temp Dewpoint Dewpoint Depression Visibility Wind Speed Wind Dir Waves Ship Positions

Seisyu Maru

Last reported at 2018-Feb-23 16:00 UTC. Time now 2018-Feb-23 16:20 UTC.
Position N 35°03' E 139°44'.

Length 84 m; draft 5 m.

Type: Cargo ship. MMSI: 431006647.

Date/timePositionNaut miles runAvg speedWind from/ knotsBaromVisibWave heightAir tempDewpointWater temp
2018-Feb-23 16:00N 35°03' E 139°44'713.6
2018-Feb-23 15:30N 35°09' E 139°45'713.1
2018-Feb-23 15:01N 35°16' E 139°46'713.0
2018-Feb-23 14:30N 35°22' E 139°42'510.7
2018-Feb-23 14:00N 35°25' E 139°47'510.1
2018-Feb-23 13:29N 35°21' E 139°51'0 0.1
2018-Feb-23 13:00N 35°21' E 139°51'0 0.0
2018-Feb-23 12:30N 35°21' E 139°51'0 0.1
2018-Feb-23 12:00N 35°21' E 139°51'0 0.1
2018-Feb-23 11:31N 35°21' E 139°51'0 0.0
2018-Feb-23 11:00N 35°21' E 139°51'0 0.1
2018-Feb-23 10:26N 35°21' E 139°51'0 0.1
2018-Feb-23 09:53N 35°21' E 139°51'0 0.0
2018-Feb-23 09:29N 35°21' E 139°51'0 0.0
2018-Feb-23 08:59N 35°21' E 139°51'0 0.0
2018-Feb-23 08:26N 35°21' E 139°51'0 0.1
2018-Feb-23 07:59N 35°21' E 139°51'0 0.0
2018-Feb-23 07:29N 35°21' E 139°51'0 0.0
2018-Feb-23 06:56N 35°21' E 139°51'0 0.0
2018-Feb-23 06:29N 35°21' E 139°51'0 0.1
2018-Feb-23 05:59N 35°21' E 139°51'0 0.2
2018-Feb-23 05:29N 35°21' E 139°51'0 0.1
2018-Feb-23 05:00N 35°21' E 139°51'0 0.5
2018-Feb-23 04:31N 35°21' E 139°51'0 0.3
2018-Feb-23 03:58N 35°22' E 139°51'0 0.0
2018-Feb-23 03:28N 35°22' E 139°51'0 0.0
2018-Feb-23 02:58N 35°22' E 139°51'0 0.0
2018-Feb-23 02:28N 35°22' E 139°51'0 0.0
2018-Feb-23 01:58N 35°22' E 139°51'0 0.0
2018-Feb-23 01:28N 35°22' E 139°51'0 0.0
2018-Feb-23 00:58N 35°22' E 139°51'0 0.2
2018-Feb-23 00:30N 35°21' E 139°51'2 3.1
2018-Feb-23 00:01N 35°22' E 139°49'0 0.0
2018-Feb-22 23:31N 35°22' E 139°49'0 0.0
2018-Feb-22 23:01N 35°22' E 139°49'0 0.0
2018-Feb-22 22:31N 35°22' E 139°49'0 0.0
2018-Feb-22 22:00N 35°22' E 139°49'0 0.0
2018-Feb-22 21:26N 35°22' E 139°49'0 0.0
2018-Feb-22 20:59N 35°22' E 139°49'0 0.0
2018-Feb-22 20:29N 35°22' E 139°49'0 0.0
2018-Feb-22 19:59N 35°22' E 139°49'0 0.0
2018-Feb-22 19:29N 35°22' E 139°49'0 0.0
2018-Feb-22 18:56N 35°22' E 139°49'0 0.0
2018-Feb-22 18:29N 35°22' E 139°49'0 0.2
2018-Feb-22 18:00N 35°22' E 139°49'4 7.4
2018-Feb-22 17:30N 35°21' E 139°45'510.9
2018-Feb-22 17:00N 35°16' E 139°47'611.6
2018-Feb-22 16:30N 35°10' E 139°46'712.4
2018-Feb-22 15:59N 35°04' E 139°44'612.1
2018-Feb-22 15:30N 34°58' E 139°43'711.9
2018-Feb-22 14:57N 34°52' E 139°47'910.4
2018-Feb-22 14:05N 34°53' E 139°58'111.9
2018-Feb-22 13:59N 34°54' E 139°59'712.5
2018-Feb-22 13:28N 34°58' E 140°06'611.9
2018-Feb-22 12:59N 35°01' E 140°11'0 0.0
2018-Feb-21 13:33N 35°01' E 140°11'512.3
2018-Feb-21 13:10N 34°58' E 140°07'1611.6
2018-Feb-21 11:46N 34°53' E 139°48'612.9
2018-Feb-21 11:17N 34°58' E 139°44'311.5
2018-Feb-21 11:00N 35°01' E 139°44'612.3
2018-Feb-21 10:30N 35°07' E 139°45'612.8
2018-Feb-21 10:00N 35°13' E 139°46'612.3
2018-Feb-21 09:30N 35°19' E 139°43'611.7
2018-Feb-21 09:00N 35°25' E 139°44'612.9
2018-Feb-21 08:30N 35°29' E 139°50'611.1
2018-Feb-21 08:00N 35°34' E 139°52'2 3.9
2018-Feb-21 07:30N 35°36' E 139°51'0 0.1
2018-Feb-21 07:00N 35°36' E 139°51'0 0.1
2018-Feb-21 06:30N 35°36' E 139°51'3 6.6
2018-Feb-21 05:59N 35°38' E 139°48'0 0.1
2018-Feb-21 05:17N 35°38' E 139°48'0 0.0
2018-Feb-21 05:00N 35°38' E 139°48'0 0.0
2018-Feb-20 22:59N 35°38' E 139°48'4 7.2
2018-Feb-20 22:28N 35°35' E 139°51'1 1.6
2018-Feb-20 22:00N 35°35' E 139°52'0 0.0
2018-Feb-20 21:25N 35°35' E 139°52'0 0.0
2018-Feb-20 21:00N 35°35' E 139°52'0 0.0
2018-Feb-20 20:27N 35°35' E 139°52'0 0.0
2018-Feb-20 14:15N 35°35' E 139°52'0 0.0
2018-Feb-20 14:00N 35°35' E 139°52'0 0.0
2018-Feb-20 13:30N 35°35' E 139°52'0 0.0
2018-Feb-20 12:54N 35°35' E 139°52'0 0.0
2018-Feb-20 12:30N 35°35' E 139°52'0 0.0
2018-Feb-20 11:42N 35°35' E 139°52'0 0.0
2018-Feb-20 11:30N 35°35' E 139°52'0 0.0
2018-Feb-20 10:57N 35°35' E 139°52'0 0.0
2018-Feb-20 10:27N 35°35' E 139°52'0 0.0
2018-Feb-20 09:51N 35°35' E 139°52'0 0.0
2018-Feb-20 09:30N 35°35' E 139°52'0 0.0
2018-Feb-20 08:57N 35°35' E 139°52'0 0.1
2018-Feb-20 07:50N 35°35' E 139°52'3 9.2
2018-Feb-20 07:30N 35°32' E 139°52'612.5
2018-Feb-20 07:00N 35°27' E 139°49'612.7
2018-Feb-20 06:30N 35°21' E 139°45'611.8
2018-Feb-20 06:00N 35°15' E 139°47'712.4
2018-Feb-20 05:29N 35°09' E 139°46'712.2
2018-Feb-20 04:53N 35°04' E 139°40'512.5
2018-Feb-20 04:30N 35°01' E 139°35'1312.7
2018-Feb-20 03:26N 34°53' E 139°22'612.7
2018-Feb-20 02:58N 34°50' E 139°16'612.8
2018-Feb-20 02:29N 34°46' E 139°10'611.8
2018-Feb-20 02:00N 34°42' E 139°05'611.6
2018-Feb-20 01:28N 34°38' E 138°59'811.5
2018-Feb-20 00:47N 34°35' E 138°51'612.3
2018-Feb-20 00:18N 34°34' E 138°43'512.7
2018-Feb-19 23:56N 34°34' E 138°38'612.8
2018-Feb-19 23:30N 34°33' E 138°31'712.8
2018-Feb-19 22:57N 34°32' E 138°23'612.9
2018-Feb-19 22:30N 34°32' E 138°16'16111.1
2018-Feb-19 07:55N 33°45' E 135°09'613.0
2018-Feb-19 07:29N 33°49' E 135°05'613.1
2018-Feb-19 06:59N 33°54' E 135°00'613.0
2018-Feb-19 06:30N 33°59' E 134°55'613.1
2018-Feb-19 06:00N 34°04' E 134°50'713.3
2018-Feb-19 05:29N 34°09' E 134°45'713.9
2018-Feb-19 05:00N 34°14' E 134°39'612.6
2018-Feb-19 04:30N 34°18' E 134°33'612.7
2018-Feb-19 04:00N 34°20' E 134°26'612.7
2018-Feb-19 03:29N 34°22' E 134°18'7910.4
2018-Feb-18 19:50N 34°01' E 132°46'410.8
2018-Feb-18 19:30N 33°58' E 132°44'510.2
2018-Feb-18 18:59N 33°55' E 132°39'511.1
2018-Feb-18 18:30N 33°51' E 132°34'611.4
2018-Feb-18 18:00N 33°47' E 132°29'611.6
2018-Feb-18 17:30N 33°44' E 132°23'611.8
2018-Feb-18 17:00N 33°40' E 132°18'1911.8
2018-Feb-18 15:23N 33°29' E 131°59'512.3
2018-Feb-18 15:00N 33°26' E 131°55'612.7
2018-Feb-18 14:30N 33°22' E 131°48'712.9
2018-Feb-18 13:58N 33°18' E 131°42'3 4.5
2018-Feb-18 13:17N 33°16' E 131°40'0 0.0
2018-Feb-18 12:54N 33°16' E 131°40'0 0.0
2018-Feb-18 12:26N 33°16' E 131°40'0 0.0
2018-Feb-18 11:54N 33°16' E 131°40'0 0.0
2018-Feb-18 11:27N 33°16' E 131°40'0 0.0
2018-Feb-18 02:24N 33°16' E 131°40'3 6.1
2018-Feb-18 01:59N 33°17' E 131°43'3 3.8
2018-Feb-18 01:16N 33°15' E 131°45'0 0.0
2018-Feb-18 00:57N 33°15' E 131°45'0 0.0
2018-Feb-18 00:27N 33°15' E 131°45'0 0.0
2018-Feb-17 23:58N 33°15' E 131°45'0 0.0
2018-Feb-17 06:49N 33°15' E 131°45'0 0.8
2018-Feb-17 06:30N 33°15' E 131°45'510.7
2018-Feb-17 06:00N 33°19' E 131°40'4 8.1
2018-Feb-17 05:30N 33°22' E 131°43'714.2
2018-Feb-17 05:00N 33°29' E 131°46'714.1
2018-Feb-17 04:29N 33°35' E 131°50'1612.8
2018-Feb-17 03:15N 33°45' E 132°05'412.8
2018-Feb-17 02:55N 33°48' E 132°09'811.8
2018-Feb-17 02:14N 33°50' E 132°18'1211.9
2018-Feb-17 01:11N 33°53' E 132°33'511.4
2018-Feb-17 00:46N 33°55' E 132°38'310.3
2018-Feb-17 00:30N 33°57' E 132°41'510.2
2018-Feb-17 00:00N 34°00' E 132°45'7411.0
2018-Feb-16 17:20N 34°26' E 134°08'410.8
2018-Feb-16 16:57N 34°25' E 134°13'511.1
2018-Feb-16 16:30N 34°24' E 134°19'612.2
2018-Feb-16 16:00N 34°26' E 134°26'612.5
2018-Feb-16 15:30N 34°29' E 134°33'612.7
2018-Feb-16 15:00N 34°31' E 134°40'713.3
2018-Feb-16 14:30N 34°33' E 134°47'713.7
2018-Feb-16 14:01N 34°36' E 134°55'713.0
2018-Feb-16 13:30N 34°36' E 135°03'613.0
2018-Feb-16 13:00N 34°36' E 135°11'713.4
2018-Feb-16 12:30N 34°36' E 135°19'612.4
2018-Feb-16 12:00N 34°39' E 135°26'1 2.7
2018-Feb-16 11:30N 34°40' E 135°27'0 0.0
2018-Feb-16 11:00N 34°40' E 135°27'0 0.0
2018-Feb-16 10:30N 34°40' E 135°27'0 0.0
2018-Feb-16 10:00N 34°40' E 135°27'0 0.0
2018-Feb-16 09:30N 34°40' E 135°27'0 0.0
2018-Feb-16 09:00N 34°40' E 135°27'0 0.0
2018-Feb-16 08:30N 34°40' E 135°27'0 0.0
2018-Feb-16 08:00N 34°40' E 135°27'0 0.0
2018-Feb-16 07:30N 34°40' E 135°27'0 0.0
2018-Feb-16 07:00N 34°40' E 135°27'0 0.0
2018-Feb-16 06:27N 34°40' E 135°27'0 0.0
2018-Feb-16 06:00N 34°40' E 135°27'0 0.0
2018-Feb-16 05:30N 34°40' E 135°27'0 0.0
2018-Feb-16 04:54N 34°40' E 135°27'0 0.0
2018-Feb-16 04:30N 34°40' E 135°27'0 0.4
2018-Feb-16 04:00N 34°40' E 135°27'4 7.3
2018-Feb-16 03:30N 34°38' E 135°23'1 2.7
2018-Feb-16 03:00N 34°37' E 135°22'0 0.0
2018-Feb-16 02:30N 34°37' E 135°22'0 0.0
2018-Feb-16 02:00N 34°37' E 135°22'0 0.0
2018-Feb-16 01:30N 34°37' E 135°22'0 0.0
2018-Feb-16 01:00N 34°37' E 135°22'0 0.0
2018-Feb-16 00:30N 34°37' E 135°22'0 0.0
2018-Feb-16 00:00N 34°37' E 135°22'0 0.0
2018-Feb-15 23:29N 34°37' E 135°22'0 0.0
2018-Feb-15 22:56N 34°37' E 135°22'0 0.0
2018-Feb-15 22:29N 34°37' E 135°22'0 0.0
2018-Feb-15 21:59N 34°37' E 135°22'0 0.0
2018-Feb-15 21:29N 34°37' E 135°22'0 0.0
2018-Feb-15 20:59N 34°37' E 135°22'0 0.0
2018-Feb-15 20:29N 34°37' E 135°22'0 0.0
2018-Feb-15 19:59N 34°37' E 135°22'0 0.0
2018-Feb-15 19:29N 34°37' E 135°22'0 0.0
2018-Feb-15 18:59N 34°37' E 135°22'0 0.0
2018-Feb-15 18:29N 34°37' E 135°22'0 0.0
2018-Feb-15 17:59N 34°37' E 135°22'0 0.0
2018-Feb-15 17:29N 34°37' E 135°22'0 0.0
2018-Feb-15 16:59N 34°37' E 135°22'0 0.0
2018-Feb-15 16:29N 34°37' E 135°22'0 0.0
2018-Feb-15 15:59N 34°37' E 135°22'0 0.0
2018-Feb-15 15:29N 34°37' E 135°22'0 0.0
2018-Feb-15 14:59N 34°37' E 135°22'0 0.0
2018-Feb-15 14:29N 34°37' E 135°22'0 0.0
2018-Feb-15 13:59N 34°37' E 135°22'0 0.0
2018-Feb-15 13:29N 34°37' E 135°22'0 0.0
2018-Feb-15 12:59N 34°37' E 135°22'0 0.0
2018-Feb-15 12:29N 34°37' E 135°22'0 0.0
2018-Feb-15 11:56N 34°37' E 135°22'0 0.0
2018-Feb-15 11:29N 34°37' E 135°22'0 0.0
2018-Feb-15 10:59N 34°37' E 135°22'0 0.0
2018-Feb-15 10:29N 34°37' E 135°22'0 0.0
2018-Feb-15 09:59N 34°37' E 135°22'0 0.0
2018-Feb-15 09:29N 34°37' E 135°22'0 0.0
2018-Feb-15 08:59N 34°37' E 135°22'0 0.1
2018-Feb-15 08:29N 34°37' E 135°22'0 0.1
2018-Feb-15 07:59N 34°37' E 135°22'0 0.0
2018-Feb-15 07:29N 34°37' E 135°22'0 0.0
2018-Feb-15 06:59N 34°37' E 135°22'0 0.0
2018-Feb-15 06:29N 34°37' E 135°22'0 0.0
2018-Feb-15 05:59N 34°37' E 135°22'0 0.0
2018-Feb-15 05:29N 34°37' E 135°22'0 0.0
2018-Feb-15 04:59N 34°37' E 135°22'0 0.0
2018-Feb-15 04:29N 34°37' E 135°22'0 0.0
2018-Feb-15 03:59N 34°37' E 135°22'0 0.1
2018-Feb-15 03:29N 34°37' E 135°22'0 0.0
2018-Feb-15 02:59N 34°37' E 135°22'0 0.0
2018-Feb-15 02:29N 34°37' E 135°22'0 0.0
2018-Feb-15 01:59N 34°37' E 135°22'0 0.1
2018-Feb-15 01:29N 34°37' E 135°22'0 0.0
2018-Feb-15 00:56N 34°37' E 135°22'0 0.0
2018-Feb-15 00:29N 34°37' E 135°22'0 0.0
2018-Feb-14 23:59N 34°37' E 135°22'0 0.0
2018-Feb-14 23:29N 34°37' E 135°22'0 0.0
2018-Feb-14 22:59N 34°37' E 135°22'0 0.0
2018-Feb-14 22:29N 34°37' E 135°22'0 0.0
2018-Feb-14 21:59N 34°37' E 135°22'2 3.3
2018-Feb-14 21:30N 34°36' E 135°20'612.6
2018-Feb-14 21:00N 34°35' E 135°13'612.9
2018-Feb-14 20:30N 34°35' E 135°05'611.7
2018-Feb-14 20:01N 34°37' E 134°59'713.3
2018-Feb-14 19:30N 34°34' E 134°51'713.1
2018-Feb-14 19:00N 34°31' E 134°44'612.9
2018-Feb-14 18:30N 34°29' E 134°37'612.7
2018-Feb-14 18:01N 34°27' E 134°30'712.8
2018-Feb-14 17:30N 34°24' E 134°22'713.2
2018-Feb-14 16:56N 34°24' E 134°13'7612.2
2018-Feb-14 10:45N 34°01' E 132°46'313.6
2018-Feb-14 10:30N 33°58' E 132°44'713.5
2018-Feb-14 09:59N 33°54' E 132°38'713.0
2018-Feb-14 09:28N 33°49' E 132°32'713.0
2018-Feb-14 08:55N 33°45' E 132°25'2812.7
2018-Feb-14 06:46N 33°28' E 131°58'312.3
2018-Feb-14 06:29N 33°26' E 131°55'612.0
2018-Feb-14 06:00N 33°23' E 131°49'612.0
2018-Feb-14 05:28N 33°19' E 131°43'4 0.4
2018-Feb-13 18:32N 33°16' E 131°40'0 0.8
2018-Feb-13 18:26N 33°16' E 131°40'0 1.1
2018-Feb-13 18:00N 33°16' E 131°40'4 7.1
2018-Feb-13 17:31N 33°20' E 131°40'2 3.8
2018-Feb-13 16:57N 33°22' E 131°40'0 0.2
2018-Feb-13 16:30N 33°22' E 131°40'  
Track history (hours):
 
Tides and Currents Weather Stations Pressure Air Temp Water Temp Dewpoint Dewpoint Depression Visibility Wind Speed Wind Dir Waves Ship Positions

Seisyu Maru

Last reported at 2018-Feb-23 16:00 UTC. Time now 2018-Feb-23 16:20 UTC.
Position N 35°03' E 139°44'.

Length 84 m; draft 5 m.

Type: Cargo ship. MMSI: 431006647.

Date/timePositionNaut miles runAvg speedWind from/ knotsBaromVisibWave heightAir tempDewpointWater temp
2018-Feb-23 16:00N 35°03' E 139°44'713.6
2018-Feb-23 15:30N 35°09' E 139°45'713.1
2018-Feb-23 15:01N 35°16' E 139°46'713.0
2018-Feb-23 14:30N 35°22' E 139°42'510.7
2018-Feb-23 14:00N 35°25' E 139°47'510.1
2018-Feb-23 13:29N 35°21' E 139°51'0 0.1
2018-Feb-23 13:00N 35°21' E 139°51'0 0.0
2018-Feb-23 12:30N 35°21' E 139°51'0 0.1
2018-Feb-23 12:00N 35°21' E 139°51'0 0.1
2018-Feb-23 11:31N 35°21' E 139°51'0 0.0
2018-Feb-23 11:00N 35°21' E 139°51'0 0.1
2018-Feb-23 10:26N 35°21' E 139°51'0 0.1
2018-Feb-23 09:53N 35°21' E 139°51'0 0.0
2018-Feb-23 09:29N 35°21' E 139°51'0 0.0
2018-Feb-23 08:59N 35°21' E 139°51'0 0.0
2018-Feb-23 08:26N 35°21' E 139°51'0 0.1
2018-Feb-23 07:59N 35°21' E 139°51'0 0.0
2018-Feb-23 07:29N 35°21' E 139°51'0 0.0
2018-Feb-23 06:56N 35°21' E 139°51'0 0.0
2018-Feb-23 06:29N 35°21' E 139°51'0 0.1
2018-Feb-23 05:59N 35°21' E 139°51'0 0.2
2018-Feb-23 05:29N 35°21' E 139°51'0 0.1
2018-Feb-23 05:00N 35°21' E 139°51'0 0.5
2018-Feb-23 04:31N 35°21' E 139°51'0 0.3
2018-Feb-23 03:58N 35°22' E 139°51'0 0.0
2018-Feb-23 03:28N 35°22' E 139°51'0 0.0
2018-Feb-23 02:58N 35°22' E 139°51'0 0.0
2018-Feb-23 02:28N 35°22' E 139°51'0 0.0
2018-Feb-23 01:58N 35°22' E 139°51'0 0.0
2018-Feb-23 01:28N 35°22' E 139°51'0 0.0
2018-Feb-23 00:58N 35°22' E 139°51'0 0.2
2018-Feb-23 00:30N 35°21' E 139°51'2 3.1
2018-Feb-23 00:01N 35°22' E 139°49'0 0.0
2018-Feb-22 23:31N 35°22' E 139°49'0 0.0
2018-Feb-22 23:01N 35°22' E 139°49'0 0.0
2018-Feb-22 22:31N 35°22' E 139°49'0 0.0
2018-Feb-22 22:00N 35°22' E 139°49'0 0.0
2018-Feb-22 21:26N 35°22' E 139°49'0 0.0
2018-Feb-22 20:59N 35°22' E 139°49'0 0.0
2018-Feb-22 20:29N 35°22' E 139°49'0 0.0
2018-Feb-22 19:59N 35°22' E 139°49'0 0.0
2018-Feb-22 19:29N 35°22' E 139°49'0 0.0
2018-Feb-22 18:56N 35°22' E 139°49'0 0.0
2018-Feb-22 18:29N 35°22' E 139°49'0 0.2
2018-Feb-22 18:00N 35°22' E 139°49'4 7.4
2018-Feb-22 17:30N 35°21' E 139°45'510.9
2018-Feb-22 17:00N 35°16' E 139°47'611.6
2018-Feb-22 16:30N 35°10' E 139°46'712.4
2018-Feb-22 15:59N 35°04' E 139°44'612.1
2018-Feb-22 15:30N 34°58' E 139°43'711.9
2018-Feb-22 14:57N 34°52' E 139°47'910.4
2018-Feb-22 14:05N 34°53' E 139°58'111.9
2018-Feb-22 13:59N 34°54' E 139°59'712.5
2018-Feb-22 13:28N 34°58' E 140°06'611.9
2018-Feb-22 12:59N 35°01' E 140°11'0 0.0
2018-Feb-21 13:33N 35°01' E 140°11'512.3
2018-Feb-21 13:10N 34°58' E 140°07'1611.6
2018-Feb-21 11:46N 34°53' E 139°48'612.9
2018-Feb-21 11:17N 34°58' E 139°44'311.5
2018-Feb-21 11:00N 35°01' E 139°44'612.3
2018-Feb-21 10:30N 35°07' E 139°45'612.8
2018-Feb-21 10:00N 35°13' E 139°46'612.3
2018-Feb-21 09:30N 35°19' E 139°43'611.7
2018-Feb-21 09:00N 35°25' E 139°44'612.9
2018-Feb-21 08:30N 35°29' E 139°50'611.1
2018-Feb-21 08:00N 35°34' E 139°52'2 3.9
2018-Feb-21 07:30N 35°36' E 139°51'0 0.1
2018-Feb-21 07:00N 35°36' E 139°51'0 0.1
2018-Feb-21 06:30N 35°36' E 139°51'3 6.6
2018-Feb-21 05:59N 35°38' E 139°48'0 0.1
2018-Feb-21 05:17N 35°38' E 139°48'0 0.0
2018-Feb-21 05:00N 35°38' E 139°48'0 0.0
2018-Feb-20 22:59N 35°38' E 139°48'4 7.2
2018-Feb-20 22:28N 35°35' E 139°51'1 1.6
2018-Feb-20 22:00N 35°35' E 139°52'0 0.0
2018-Feb-20 21:25N 35°35' E 139°52'0 0.0
2018-Feb-20 21:00N 35°35' E 139°52'0 0.0
2018-Feb-20 20:27N 35°35' E 139°52'0 0.0
2018-Feb-20 14:15N 35°35' E 139°52'0 0.0
2018-Feb-20 14:00N 35°35' E 139°52'0 0.0
2018-Feb-20 13:30N 35°35' E 139°52'0 0.0
2018-Feb-20 12:54N 35°35' E 139°52'0 0.0
2018-Feb-20 12:30N 35°35' E 139°52'0 0.0
2018-Feb-20 11:42N 35°35' E 139°52'0 0.0
2018-Feb-20 11:30N 35°35' E 139°52'0 0.0
2018-Feb-20 10:57N 35°35' E 139°52'0 0.0
2018-Feb-20 10:27N 35°35' E 139°52'0 0.0
2018-Feb-20 09:51N 35°35' E 139°52'0 0.0
2018-Feb-20 09:30N 35°35' E 139°52'0 0.0
2018-Feb-20 08:57N 35°35' E 139°52'0 0.1
2018-Feb-20 07:50N 35°35' E 139°52'3 9.2
2018-Feb-20 07:30N 35°32' E 139°52'612.5
2018-Feb-20 07:00N 35°27' E 139°49'612.7
2018-Feb-20 06:30N 35°21' E 139°45'611.8
2018-Feb-20 06:00N 35°15' E 139°47'712.4
2018-Feb-20 05:29N 35°09' E 139°46'712.2
2018-Feb-20 04:53N 35°04' E 139°40'512.5
2018-Feb-20 04:30N 35°01' E 139°35'1312.7
2018-Feb-20 03:26N 34°53' E 139°22'612.7
2018-Feb-20 02:58N 34°50' E 139°16'612.8
2018-Feb-20 02:29N 34°46' E 139°10'611.8
2018-Feb-20 02:00N 34°42' E 139°05'611.6
2018-Feb-20 01:28N 34°38' E 138°59'811.5
2018-Feb-20 00:47N 34°35' E 138°51'612.3
2018-Feb-20 00:18N 34°34' E 138°43'512.7
2018-Feb-19 23:56N 34°34' E 138°38'612.8
2018-Feb-19 23:30N 34°33' E 138°31'712.8
2018-Feb-19 22:57N 34°32' E 138°23'612.9
2018-Feb-19 22:30N 34°32' E 138°16'16111.1
2018-Feb-19 07:55N 33°45' E 135°09'613.0
2018-Feb-19 07:29N 33°49' E 135°05'613.1
2018-Feb-19 06:59N 33°54' E 135°00'613.0
2018-Feb-19 06:30N 33°59' E 134°55'613.1
2018-Feb-19 06:00N 34°04' E 134°50'713.3
2018-Feb-19 05:29N 34°09' E 134°45'713.9
2018-Feb-19 05:00N 34°14' E 134°39'612.6
2018-Feb-19 04:30N 34°18' E 134°33'612.7
2018-Feb-19 04:00N 34°20' E 134°26'612.7
2018-Feb-19 03:29N 34°22' E 134°18'7910.4
2018-Feb-18 19:50N 34°01' E 132°46'410.8
2018-Feb-18 19:30N 33°58' E 132°44'510.2
2018-Feb-18 18:59N 33°55' E 132°39'511.1
2018-Feb-18 18:30N 33°51' E 132°34'611.4
2018-Feb-18 18:00N 33°47' E 132°29'611.6
2018-Feb-18 17:30N 33°44' E 132°23'611.8
2018-Feb-18 17:00N 33°40' E 132°18'1911.8
2018-Feb-18 15:23N 33°29' E 131°59'512.3
2018-Feb-18 15:00N 33°26' E 131°55'612.7
2018-Feb-18 14:30N 33°22' E 131°48'712.9
2018-Feb-18 13:58N 33°18' E 131°42'3 4.5
2018-Feb-18 13:17N 33°16' E 131°40'0 0.0
2018-Feb-18 12:54N 33°16' E 131°40'0 0.0
2018-Feb-18 12:26N 33°16' E 131°40'0 0.0
2018-Feb-18 11:54N 33°16' E 131°40'0 0.0
2018-Feb-18 11:27N 33°16' E 131°40'0 0.0
2018-Feb-18 02:24N 33°16' E 131°40'3 6.1
2018-Feb-18 01:59N 33°17' E 131°43'3 3.8
2018-Feb-18 01:16N 33°15' E 131°45'0 0.0
2018-Feb-18 00:57N 33°15' E 131°45'0 0.0
2018-Feb-18 00:27N 33°15' E 131°45'0 0.0
2018-Feb-17 23:58N 33°15' E 131°45'0 0.0
2018-Feb-17 06:49N 33°15' E 131°45'0 0.8
2018-Feb-17 06:30N 33°15' E 131°45'510.7
2018-Feb-17 06:00N 33°19' E 131°40'4 8.1
2018-Feb-17 05:30N 33°22' E 131°43'714.2
2018-Feb-17 05:00N 33°29' E 131°46'714.1
2018-Feb-17 04:29N 33°35' E 131°50'1612.8
2018-Feb-17 03:15N 33°45' E 132°05'412.8
2018-Feb-17 02:55N 33°48' E 132°09'811.8
2018-Feb-17 02:14N 33°50' E 132°18'1211.9
2018-Feb-17 01:11N 33°53' E 132°33'511.4
2018-Feb-17 00:46N 33°55' E 132°38'310.3
2018-Feb-17 00:30N 33°57' E 132°41'510.2
2018-Feb-17 00:00N 34°00' E 132°45'7411.0
2018-Feb-16 17:20N 34°26' E 134°08'410.8
2018-Feb-16 16:57N 34°25' E 134°13'511.1
2018-Feb-16 16:30N 34°24' E 134°19'612.2
2018-Feb-16 16:00N 34°26' E 134°26'612.5
2018-Feb-16 15:30N 34°29' E 134°33'612.7
2018-Feb-16 15:00N 34°31' E 134°40'713.3
2018-Feb-16 14:30N 34°33' E 134°47'713.7
2018-Feb-16 14:01N 34°36' E 134°55'713.0
2018-Feb-16 13:30N 34°36' E 135°03'613.0
2018-Feb-16 13:00N 34°36' E 135°11'713.4
2018-Feb-16 12:30N 34°36' E 135°19'612.4
2018-Feb-16 12:00N 34°39' E 135°26'1 2.7
2018-Feb-16 11:30N 34°40' E 135°27'0 0.0
2018-Feb-16 11:00N 34°40' E 135°27'0 0.0
2018-Feb-16 10:30N 34°40' E 135°27'0 0.0
2018-Feb-16 10:00N 34°40' E 135°27'0 0.0
2018-Feb-16 09:30N 34°40' E 135°27'0 0.0
2018-Feb-16 09:00N 34°40' E 135°27'0 0.0
2018-Feb-16 08:30N 34°40' E 135°27'0 0.0
2018-Feb-16 08:00N 34°40' E 135°27'0 0.0
2018-Feb-16 07:30N 34°40' E 135°27'0 0.0
2018-Feb-16 07:00N 34°40' E 135°27'0 0.0
2018-Feb-16 06:27N 34°40' E 135°27'0 0.0
2018-Feb-16 06:00N 34°40' E 135°27'0 0.0
2018-Feb-16 05:30N 34°40' E 135°27'0 0.0
2018-Feb-16 04:54N 34°40' E 135°27'0 0.0
2018-Feb-16 04:30N 34°40' E 135°27'0 0.4
2018-Feb-16 04:00N 34°40' E 135°27'4 7.3
2018-Feb-16 03:30N 34°38' E 135°23'1 2.7
2018-Feb-16 03:00N 34°37' E 135°22'0 0.0
2018-Feb-16 02:30N 34°37' E 135°22'0 0.0
2018-Feb-16 02:00N 34°37' E 135°22'0 0.0
2018-Feb-16 01:30N 34°37' E 135°22'0 0.0
2018-Feb-16 01:00N 34°37' E 135°22'0 0.0
2018-Feb-16 00:30N 34°37' E 135°22'0 0.0
2018-Feb-16 00:00N 34°37' E 135°22'0 0.0
2018-Feb-15 23:29N 34°37' E 135°22'0 0.0
2018-Feb-15 22:56N 34°37' E 135°22'0 0.0
2018-Feb-15 22:29N 34°37' E 135°22'0 0.0
2018-Feb-15 21:59N 34°37' E 135°22'0 0.0
2018-Feb-15 21:29N 34°37' E 135°22'0 0.0
2018-Feb-15 20:59N 34°37' E 135°22'0 0.0
2018-Feb-15 20:29N 34°37' E 135°22'0 0.0
2018-Feb-15 19:59N 34°37' E 135°22'0 0.0
2018-Feb-15 19:29N 34°37' E 135°22'0 0.0
2018-Feb-15 18:59N 34°37' E 135°22'0 0.0
2018-Feb-15 18:29N 34°37' E 135°22'0 0.0
2018-Feb-15 17:59N 34°37' E 135°22'0 0.0
2018-Feb-15 17:29N 34°37' E 135°22'0 0.0
2018-Feb-15 16:59N 34°37' E 135°22'0 0.0
2018-Feb-15 16:29N 34°37' E 135°22'0 0.0
2018-Feb-15 15:59N 34°37' E 135°22'0 0.0
2018-Feb-15 15:29N 34°37' E 135°22'0 0.0
2018-Feb-15 14:59N 34°37' E 135°22'0 0.0
2018-Feb-15 14:29N 34°37' E 135°22'0 0.0
2018-Feb-15 13:59N 34°37' E 135°22'0 0.0
2018-Feb-15 13:29N 34°37' E 135°22'0 0.0
2018-Feb-15 12:59N 34°37' E 135°22'0 0.0
2018-Feb-15 12:29N 34°37' E 135°22'0 0.0
2018-Feb-15 11:56N 34°37' E 135°22'0 0.0
2018-Feb-15 11:29N 34°37' E 135°22'0 0.0
2018-Feb-15 10:59N 34°37' E 135°22'0 0.0
2018-Feb-15 10:29N 34°37' E 135°22'0 0.0
2018-Feb-15 09:59N 34°37' E 135°22'0 0.0
2018-Feb-15 09:29N 34°37' E 135°22'0 0.0
2018-Feb-15 08:59N 34°37' E 135°22'0 0.1
2018-Feb-15 08:29N 34°37' E 135°22'0 0.1
2018-Feb-15 07:59N 34°37' E 135°22'0 0.0
2018-Feb-15 07:29N 34°37' E 135°22'0 0.0
2018-Feb-15 06:59N 34°37' E 135°22'0 0.0
2018-Feb-15 06:29N 34°37' E 135°22'0 0.0
2018-Feb-15 05:59N 34°37' E 135°22'0 0.0
2018-Feb-15 05:29N 34°37' E 135°22'0 0.0
2018-Feb-15 04:59N 34°37' E 135°22'0 0.0
2018-Feb-15 04:29N 34°37' E 135°22'0 0.0
2018-Feb-15 03:59N 34°37' E 135°22'0 0.1
2018-Feb-15 03:29N 34°37' E 135°22'0 0.0
2018-Feb-15 02:59N 34°37' E 135°22'0 0.0
2018-Feb-15 02:29N 34°37' E 135°22'0 0.0
2018-Feb-15 01:59N 34°37' E 135°22'0 0.1
2018-Feb-15 01:29N 34°37' E 135°22'0 0.0
2018-Feb-15 00:56N 34°37' E 135°22'0 0.0
2018-Feb-15 00:29N 34°37' E 135°22'0 0.0
2018-Feb-14 23:59N 34°37' E 135°22'0 0.0
2018-Feb-14 23:29N 34°37' E 135°22'0 0.0
2018-Feb-14 22:59N 34°37' E 135°22'0 0.0
2018-Feb-14 22:29N 34°37' E 135°22'0 0.0
2018-Feb-14 21:59N 34°37' E 135°22'2 3.3
2018-Feb-14 21:30N 34°36' E 135°20'612.6
2018-Feb-14 21:00N 34°35' E 135°13'612.9
2018-Feb-14 20:30N 34°35' E 135°05'611.7
2018-Feb-14 20:01N 34°37' E 134°59'713.3
2018-Feb-14 19:30N 34°34' E 134°51'713.1
2018-Feb-14 19:00N 34°31' E 134°44'612.9
2018-Feb-14 18:30N 34°29' E 134°37'612.7
2018-Feb-14 18:01N 34°27' E 134°30'712.8
2018-Feb-14 17:30N 34°24' E 134°22'713.2
2018-Feb-14 16:56N 34°24' E 134°13'7612.2
2018-Feb-14 10:45N 34°01' E 132°46'313.6
2018-Feb-14 10:30N 33°58' E 132°44'713.5
2018-Feb-14 09:59N 33°54' E 132°38'713.0
2018-Feb-14 09:28N 33°49' E 132°32'713.0
2018-Feb-14 08:55N 33°45' E 132°25'2812.7
2018-Feb-14 06:46N 33°28' E 131°58'312.3
2018-Feb-14 06:29N 33°26' E 131°55'612.0
2018-Feb-14 06:00N 33°23' E 131°49'612.0
2018-Feb-14 05:28N 33°19' E 131°43'4 0.4
2018-Feb-13 18:32N 33°16' E 131°40'0 0.8
2018-Feb-13 18:26N 33°16' E 131°40'0 1.1
2018-Feb-13 18:00N 33°16' E 131°40'4 7.1
2018-Feb-13 17:31N 33°20' E 131°40'2 3.8
2018-Feb-13 16:57N 33°22' E 131°40'0 0.2
2018-Feb-13 16:30N 33°22' E 131°40'  

Dump ship's entire track history